createdAt,value
2023-04-01T00:00:35.018Z,13.90
2023-04-01T00:03:55.132Z,14.13
2023-04-01T00:07:20.671Z,14.18
2023-04-01T00:10:26.259Z,14.36
2023-04-01T00:13:34.742Z,14.19
2023-04-01T00:16:40.233Z,14.39
2023-04-01T00:19:47.886Z,14.49
2023-04-01T00:23:03.516Z,14.60
2023-04-01T00:26:23.175Z,14.69
2023-04-01T00:29:33.114Z,14.53
2023-04-01T00:32:39.017Z,14.59
2023-04-01T00:35:47.330Z,14.61
2023-04-01T00:38:52.973Z,14.75
2023-04-01T00:42:07.978Z,14.81
2023-04-01T00:45:32.668Z,14.95
2023-04-01T00:48:44.294Z,15.10
2023-04-01T00:51:53.705Z,15.26
2023-04-01T00:55:02.518Z,15.41
2023-04-01T00:58:15.859Z,15.57
2023-04-01T01:01:24.656Z,15.66
2023-04-01T01:04:33.893Z,15.79
2023-04-01T01:07:46.724Z,15.92
2023-04-01T01:10:54.689Z,15.97
2023-04-01T01:14:15.561Z,15.95
2023-04-01T01:17:46.439Z,15.88
2023-04-01T01:21:21.814Z,15.86
2023-04-01T01:24:34.172Z,15.74
2023-04-01T01:27:56.307Z,15.35
2023-04-01T01:31:14.277Z,15.21
2023-04-01T01:34:38.469Z,15.23
2023-04-01T01:37:50.431Z,15.08
2023-04-01T01:40:58.916Z,14.76
2023-04-01T01:44:11.572Z,14.80
2023-04-01T01:47:24.264Z,14.77
2023-04-01T01:50:33.267Z,14.70
2023-04-01T01:53:38.949Z,14.76
2023-04-01T01:56:47.250Z,14.65
2023-04-01T02:00:01.691Z,14.77
2023-04-01T02:03:09.832Z,14.80
2023-04-01T02:06:19.832Z,14.92
2023-04-01T02:09:30.473Z,14.60
2023-04-01T02:12:36.399Z,14.39
2023-04-01T02:15:52.615Z,14.50
2023-04-01T02:19:01.835Z,14.63
2023-04-01T02:22:10.853Z,14.41
2023-04-01T02:25:24.743Z,14.68
2023-04-01T02:28:33.801Z,14.67
2023-04-01T02:31:40.051Z,14.83
2023-04-01T02:34:51.505Z,14.97
2023-04-01T02:38:02.952Z,15.04
2023-04-01T02:41:11.703Z,15.10
2023-04-01T02:44:19.392Z,15.19
2023-04-01T02:47:27.724Z,15.29
2023-04-01T02:50:35.640Z,15.28
2023-04-01T02:53:40.938Z,15.17
2023-04-01T02:56:51.864Z,15.20
2023-04-01T03:00:00.767Z,15.26
2023-04-01T03:03:10.846Z,15.36
2023-04-01T03:06:33.463Z,15.42
2023-04-01T03:09:44.641Z,15.38
2023-04-01T03:12:52.401Z,15.50
2023-04-01T03:16:06.790Z,15.52
2023-04-01T03:19:15.706Z,15.55
2023-04-01T03:22:23.192Z,15.54
2023-04-01T03:25:32.210Z,15.40
2023-04-01T03:28:42.433Z,15.37
2023-04-01T03:31:51.048Z,15.34
2023-04-01T03:34:56.808Z,15.34
2023-04-01T03:38:04.566Z,15.22
2023-04-01T03:41:15.600Z,15.08
2023-04-01T03:44:26.680Z,15.19
2023-04-01T03:47:45.289Z,15.00
2023-04-01T03:51:00.972Z,14.89
2023-04-01T03:54:07.543Z,15.00
2023-04-01T03:57:13.050Z,15.03
2023-04-01T04:00:21.864Z,14.87
2023-04-01T04:03:29.292Z,14.72
2023-04-01T04:06:37.509Z,14.21
2023-04-01T04:09:43.260Z,14.30
2023-04-01T04:12:48.909Z,14.20
2023-04-01T04:15:54.574Z,14.02
2023-04-01T04:19:00.160Z,14.00
2023-04-01T04:22:25.806Z,13.84
2023-04-01T04:25:42.642Z,14.01
2023-04-01T04:29:02.425Z,14.17
2023-04-01T04:32:11.245Z,14.25
2023-04-01T04:35:21.842Z,14.31
2023-04-01T04:38:47.613Z,14.21
2023-04-01T04:41:56.131Z,14.43
2023-04-01T04:45:04.417Z,14.29
2023-04-01T04:48:17.300Z,14.09
2023-04-01T04:51:25.564Z,14.16
2023-04-01T04:54:41.918Z,14.15
2023-04-01T04:57:50.932Z,14.45
2023-04-01T05:01:12.295Z,14.03
2023-04-01T05:04:20.641Z,13.51
2023-04-01T05:07:28.447Z,13.45
2023-04-01T05:10:36.859Z,13.63
2023-04-01T05:13:54.788Z,13.29
2023-04-01T05:17:14.004Z,13.55
2023-04-01T05:20:39.718Z,13.23
2023-04-01T05:23:47.750Z,13.50
2023-04-01T05:26:57.304Z,13.77
2023-04-01T05:30:03.291Z,13.70
2023-04-01T05:33:21.942Z,13.51
2023-04-01T05:36:30.380Z,12.84
2023-04-01T05:39:39.512Z,12.56
2023-04-01T05:42:58.216Z,12.34
2023-04-01T05:46:07.066Z,12.64
2023-04-01T05:49:17.085Z,12.74
2023-04-01T05:52:22.554Z,12.34
2023-04-01T05:55:28.519Z,11.94
2023-04-01T05:58:41.663Z,11.84
2023-04-01T06:01:50.219Z,11.88
2023-04-01T06:05:19.175Z,12.09
2023-04-01T06:08:27.226Z,12.25
2023-04-01T06:11:37.806Z,11.89
2023-04-01T06:14:51.011Z,12.05
2023-04-01T06:18:21.420Z,12.68
2023-04-01T06:21:36.949Z,13.20
2023-04-01T06:24:54.761Z,13.09
2023-04-01T06:28:25.865Z,13.05
2023-04-01T06:31:48.479Z,13.07
2023-04-01T06:35:03.963Z,12.71
2023-04-01T06:38:15.873Z,12.26
2023-04-01T06:41:40.835Z,12.20
2023-04-01T06:45:01.150Z,11.89
2023-04-01T06:48:34.060Z,12.18
2023-04-01T06:52:04.876Z,11.78
2023-04-01T06:55:31.341Z,12.31
2023-04-01T06:59:00.596Z,12.25
2023-04-01T07:02:16.852Z,12.35
2023-04-01T07:05:25.919Z,13.02
2023-04-01T07:08:36.301Z,13.65
2023-04-01T07:11:44.324Z,13.94
2023-04-01T07:15:22.333Z,13.72
2023-04-01T07:18:32.721Z,13.82
2023-04-01T07:21:43.821Z,13.88
2023-04-01T07:24:56.116Z,13.80
2023-04-01T07:28:05.825Z,14.10
2023-04-01T07:31:19.711Z,14.28
2023-04-01T07:34:37.024Z,14.76
2023-04-01T07:37:49.895Z,14.79
2023-04-01T07:41:00.616Z,15.11
2023-04-01T07:44:11.022Z,15.20
2023-04-01T07:47:36.539Z,15.31
2023-04-01T07:50:51.161Z,15.31
2023-04-01T07:54:03.787Z,15.70
2023-04-01T07:57:12.910Z,15.79
2023-04-01T08:00:31.048Z,15.41
2023-04-01T08:03:51.817Z,15.24
2023-04-01T08:07:03.765Z,15.43
2023-04-01T08:10:17.534Z,15.74
2023-04-01T08:13:46.261Z,15.53
2023-04-01T08:17:22.793Z,15.23
2023-04-01T08:20:50.589Z,14.96
2023-04-01T08:24:08.498Z,14.95
2023-04-01T08:27:20.005Z,14.86
2023-04-01T08:30:42.643Z,14.87
2023-04-01T08:33:49.652Z,15.19
2023-04-01T08:37:02.121Z,15.28
2023-04-01T08:40:21.302Z,15.21
2023-04-01T08:43:33.240Z,15.40
2023-04-01T08:46:56.947Z,15.38
2023-04-01T08:50:22.120Z,15.48
2023-04-01T08:53:48.096Z,15.56
2023-04-01T08:57:01.458Z,15.31
2023-04-01T09:00:16.275Z,15.76
2023-04-01T09:04:13.226Z,15.94
2023-04-01T09:07:27.490Z,15.90
2023-04-01T09:10:49.093Z,15.73
2023-04-01T09:14:34.228Z,15.55
2023-04-01T09:18:23.896Z,15.49
2023-04-01T09:21:39.012Z,15.56
2023-04-01T09:25:04.257Z,15.63
2023-04-01T09:28:12.926Z,15.43
2023-04-01T09:31:25.330Z,15.36
2023-04-01T09:35:09.841Z,15.34
2023-04-01T09:38:30.686Z,15.19
2023-04-01T09:41:44.686Z,15.37
2023-04-01T09:45:16.183Z,15.37
2023-04-01T09:48:49.631Z,15.41
2023-04-01T09:52:05.159Z,15.57
2023-04-01T09:55:22.442Z,15.53
2023-04-01T09:58:43.392Z,15.26
2023-04-01T10:02:29.564Z,15.02
2023-04-01T10:05:53.764Z,14.79
2023-04-01T10:09:19.144Z,14.83
2023-04-01T10:12:46.783Z,14.57
2023-04-01T10:16:18.677Z,14.56
2023-04-01T10:19:52.025Z,14.37
2023-04-01T10:23:09.320Z,14.45
2023-04-01T10:26:34.728Z,14.14
2023-04-01T10:30:06.914Z,14.27
2023-04-01T10:33:35.058Z,14.54
2023-04-01T10:36:57.130Z,14.69
2023-04-01T10:40:36.273Z,14.66
2023-04-01T10:44:29.483Z,14.64
2023-04-01T10:48:08.389Z,14.50
2023-04-01T10:51:27.504Z,14.84
2023-04-01T10:54:58.989Z,15.05
2023-04-01T10:58:41.703Z,15.23
2023-04-01T11:02:22.533Z,15.31
2023-04-01T11:06:23.078Z,15.17
2023-04-01T11:09:42.364Z,15.32
2023-04-01T11:13:21.773Z,15.39
2023-04-01T11:16:37.220Z,15.39
2023-04-01T11:20:13.524Z,15.22
2023-04-01T11:23:38.128Z,15.33
2023-04-01T11:26:53.962Z,15.20
2023-04-01T11:30:22.170Z,15.16
2023-04-01T11:33:56.166Z,14.68
2023-04-01T11:37:11.931Z,13.90
2023-04-01T11:40:53.036Z,13.91
2023-04-01T11:44:22.608Z,13.72
2023-04-01T11:56:04.780Z,13.58
2023-04-01T11:59:43.789Z,13.82
2023-04-01T12:03:03.653Z,13.80
2023-04-01T12:06:37.472Z,13.76
2023-04-01T12:09:51.067Z,13.74
2023-04-01T12:13:02.121Z,13.73
2023-04-01T12:16:17.580Z,14.01
2023-04-01T12:19:31.578Z,13.99
2023-04-01T12:23:01.516Z,14.00
2023-04-01T12:26:25.560Z,13.90
2023-04-01T12:29:58.589Z,13.88
2023-04-01T12:33:26.831Z,13.92
2023-04-01T12:36:54.608Z,14.22
2023-04-01T12:40:23.335Z,14.12
2023-04-01T12:54:57.195Z,13.76
2023-04-01T12:58:45.788Z,13.87
2023-04-01T13:02:09.573Z,14.26
2023-04-01T13:05:32.772Z,14.30
2023-04-01T13:08:51.512Z,14.13
2023-04-01T13:12:40.750Z,14.02
2023-04-01T13:16:06.550Z,14.27
2023-04-01T13:19:33.061Z,14.22
2023-04-01T13:22:44.385Z,14.33
2023-04-01T13:26:06.794Z,13.21
2023-04-01T13:29:38.754Z,13.30
2023-04-01T13:32:46.654Z,14.05
2023-04-01T13:35:58.984Z,14.43
2023-04-01T13:39:39.603Z,13.60
2023-04-01T13:43:06.902Z,13.41
2023-04-01T13:46:35.258Z,13.77
2023-04-01T13:50:17.266Z,13.95
2023-04-01T13:54:02.282Z,14.27
2023-04-01T13:57:25.891Z,14.38
2023-04-01T14:00:57.386Z,14.64
2023-04-01T14:04:22.700Z,14.78
2023-04-01T14:07:51.696Z,14.78
2023-04-01T14:11:21.089Z,13.01
2023-04-01T14:14:55.219Z,12.42
2023-04-01T14:18:30.895Z,13.22
2023-04-01T14:21:55.967Z,13.97
2023-04-01T14:25:35.779Z,13.98
2023-04-01T14:28:57.340Z,12.70
2023-04-01T14:32:16.628Z,12.94
2023-04-01T14:35:37.777Z,13.33
2023-04-01T14:38:57.298Z,13.62
2023-04-01T14:42:22.110Z,13.75
2023-04-01T14:45:53.276Z,14.05
2023-04-01T14:49:00.164Z,13.47
2023-04-01T14:52:29.678Z,12.28
2023-04-01T14:55:56.533Z,12.98
2023-04-01T14:59:30.051Z,13.52
2023-04-01T15:03:00.161Z,13.66
2023-04-01T15:06:43.962Z,12.23
2023-04-01T15:10:20.689Z,12.66
2023-04-01T15:13:56.501Z,12.93
2023-04-01T15:17:18.989Z,13.23
2023-04-01T15:20:58.349Z,13.16
2023-04-01T15:24:26.055Z,13.42
2023-04-01T15:27:53.999Z,13.75
2023-04-01T15:31:24.272Z,13.70
2023-04-01T15:34:55.448Z,12.36
2023-04-01T15:38:28.173Z,12.15
2023-04-01T15:42:13.538Z,13.07
2023-04-01T15:45:47.055Z,13.36
2023-04-01T15:49:14.223Z,13.63
2023-04-01T15:52:45.851Z,12.19
2023-04-01T15:56:16.971Z,11.87
2023-04-01T15:59:41.815Z,12.53
2023-04-01T16:03:16.589Z,13.08
2023-04-01T16:07:01.327Z,12.92
2023-04-01T16:10:34.808Z,13.08
2023-04-01T16:14:10.092Z,13.14
2023-04-01T16:17:52.089Z,11.80
2023-04-01T16:21:24.428Z,12.01
2023-04-01T16:24:53.358Z,12.69
2023-04-01T16:28:25.579Z,12.94
2023-04-01T16:31:54.189Z,13.14
2023-04-01T16:35:25.598Z,11.70
2023-04-01T16:38:54.452Z,11.66
2023-04-01T16:42:31.358Z,12.30
2023-04-01T16:46:01.417Z,12.31
2023-04-01T16:49:29.878Z,12.40
2023-04-01T16:53:00.739Z,12.61
2023-04-01T16:56:27.435Z,12.40
2023-04-01T16:59:37.917Z,12.34
2023-04-01T17:03:13.067Z,12.44
2023-04-01T17:06:42.875Z,12.38
2023-04-01T17:10:19.099Z,11.09
2023-04-01T17:13:48.680Z,10.97
2023-04-01T17:17:12.442Z,11.39
2023-04-01T17:20:42.778Z,11.69
2023-04-01T17:24:08.652Z,11.73
2023-04-01T17:27:42.545Z,11.40
2023-04-01T17:31:13.041Z,11.66
2023-04-01T17:34:46.564Z,11.76
2023-04-01T17:38:18.539Z,11.94
2023-04-01T17:41:49.236Z,11.20
2023-04-01T17:45:12.741Z,10.18
2023-04-01T17:48:44.196Z,10.69
2023-04-01T17:52:14.492Z,11.14
2023-04-01T17:55:34.046Z,11.45
2023-04-01T17:59:08.869Z,11.64
2023-04-01T18:02:39.134Z,10.93
2023-04-01T18:06:08.955Z,9.88
2023-04-01T18:09:39.576Z,10.58
2023-04-01T18:13:14.738Z,10.57
2023-04-01T18:16:47.741Z,11.15
2023-04-01T18:20:36.316Z,11.06
2023-04-01T18:24:05.072Z,11.15
2023-04-01T18:27:25.497Z,10.29
2023-04-01T18:30:45.957Z,9.48
2023-04-01T18:34:16.965Z,10.14
2023-04-01T18:37:40.217Z,10.55
2023-04-01T18:41:14.455Z,10.70
2023-04-01T18:44:36.764Z,10.63
2023-04-01T18:48:10.535Z,10.83
2023-04-01T18:51:40.082Z,10.92
2023-04-01T18:55:18.601Z,11.00
2023-04-01T18:58:50.122Z,10.12
2023-04-01T19:02:27.873Z,9.23
2023-04-01T19:05:54.875Z,10.00
2023-04-01T19:09:18.849Z,9.95
2023-04-01T19:12:50.147Z,10.10
2023-04-01T19:16:19.554Z,10.34
2023-04-01T19:19:51.382Z,10.39
2023-04-01T19:23:18.956Z,10.17
2023-04-01T19:26:47.785Z,9.90
2023-04-01T19:30:23.438Z,10.35
2023-04-01T19:33:54.767Z,10.27
2023-04-01T19:37:31.710Z,10.25
2023-04-01T19:40:57.655Z,10.27
2023-04-01T19:44:30.295Z,10.45
2023-04-01T19:47:56.105Z,10.39
2023-04-01T19:51:25.430Z,10.61
2023-04-01T19:54:48.433Z,10.45
2023-04-01T19:58:19.298Z,10.46
2023-04-01T20:01:44.704Z,10.54
2023-04-01T20:05:27.900Z,10.35
2023-04-01T20:08:51.123Z,9.99
2023-04-01T20:12:23.674Z,8.44
2023-04-01T20:15:57.222Z,8.74
2023-04-01T20:19:04.432Z,9.48
2023-04-01T20:22:33.881Z,9.46
2023-04-01T20:25:52.231Z,9.61
2023-04-01T20:29:06.920Z,9.72
2023-04-01T20:32:31.485Z,9.77
2023-04-01T20:36:06.996Z,10.01
2023-04-01T20:39:41.762Z,10.23
2023-04-01T20:43:10.151Z,8.85
2023-04-01T20:46:43.063Z,8.57
2023-04-01T20:50:20.153Z,9.14
2023-04-01T20:53:52.145Z,9.48
2023-04-01T20:57:13.372Z,9.76
2023-04-01T21:00:48.317Z,9.84
2023-04-01T21:04:18.313Z,9.00
2023-04-01T21:07:49.409Z,8.14
2023-04-01T21:11:03.310Z,8.83
2023-04-01T21:14:35.129Z,9.21
2023-04-01T21:18:06.721Z,9.45
2023-04-01T21:21:48.305Z,9.76
2023-04-01T21:25:22.421Z,9.80
2023-04-01T21:28:58.624Z,8.99
2023-04-01T21:32:35.446Z,7.93
2023-04-01T21:36:05.944Z,8.48
2023-04-01T21:39:44.427Z,9.02
2023-04-01T21:43:16.759Z,9.24
2023-04-01T21:46:53.608Z,9.56
2023-04-01T21:50:09.279Z,8.49
2023-04-01T21:53:52.246Z,7.74
2023-04-01T21:57:38.164Z,8.53
2023-04-01T22:01:06.668Z,9.21
2023-04-01T22:04:47.104Z,9.11
2023-04-01T22:08:18.438Z,8.82
2023-04-01T22:11:35.920Z,9.28
2023-04-01T22:15:05.278Z,9.25
2023-04-01T22:18:35.689Z,9.10
2023-04-01T22:22:02.543Z,9.16
2023-04-01T22:25:26.142Z,8.37
2023-04-01T22:28:48.892Z,7.59
2023-04-01T22:32:18.821Z,8.24
2023-04-01T22:35:50.008Z,8.49
2023-04-01T22:39:24.116Z,9.16
2023-04-01T22:42:45.675Z,8.86
2023-04-01T22:46:18.556Z,7.45
2023-04-01T22:49:38.297Z,8.27
2023-04-01T22:52:49.269Z,8.85
2023-04-01T22:56:17.979Z,8.48
2023-04-01T22:59:28.730Z,7.20
2023-04-01T23:03:06.888Z,7.96
2023-04-01T23:06:35.486Z,8.79
2023-04-01T23:10:04.155Z,8.68
2023-04-01T23:13:32.570Z,7.18
2023-04-01T23:17:02.953Z,7.51
2023-04-01T23:20:34.279Z,8.61
2023-04-01T23:24:04.765Z,8.81
2023-04-01T23:27:36.040Z,7.46
2023-04-01T23:31:01.802Z,7.46
2023-04-01T23:34:25.123Z,8.09
2023-04-01T23:37:43.369Z,8.58
2023-04-01T23:41:10.608Z,8.74
2023-04-01T23:44:27.685Z,8.32
2023-04-01T23:47:54.208Z,6.88
2023-04-01T23:51:16.538Z,7.36
2023-04-01T23:54:44.215Z,8.04
2023-04-01T23:58:16.384Z,8.69
